sensor_id;sensor_type;location;lat;lon;timestamp;P1;durP1;ratioP1;P2;durP2;ratioP2
60847;SDS011;46681;47.696;9.140;2024-01-15T00:02:05;9.93;;;7.73;;
60847;SDS011;46681;47.696;9.140;2024-01-15T00:04:31;12.43;;;8.53;;
60847;SDS011;46681;47.696;9.140;2024-01-15T00:07:00;11.67;;;8.13;;
60847;SDS011;46681;47.696;9.140;2024-01-15T00:09:26;9.90;;;7.50;;
60847;SDS011;46681;47.696;9.140;2024-01-15T00:11:51;9.30;;;7.07;;
60847;SDS011;46681;47.696;9.140;2024-01-15T00:14:17;11.20;;;8.00;;
60847;SDS011;46681;47.696;9.140;2024-01-15T00:16:42;9.73;;;8.13;;
60847;SDS011;46681;47.696;9.140;2024-01-15T00:19:08;11.20;;;8.53;;
60847;SDS011;46681;47.696;9.140;2024-01-15T00:21:33;9.23;;;7.43;;
60847;SDS011;46681;47.696;9.140;2024-01-15T00:23:59;9.80;;;7.70;;
60847;SDS011;46681;47.696;9.140;2024-01-15T00:26:24;9.70;;;7.50;;
60847;SDS011;46681;47.696;9.140;2024-01-15T00:28:50;10.27;;;7.50;;
60847;SDS011;46681;47.696;9.140;2024-01-15T00:31:16;10.73;;;7.47;;
60847;SDS011;46681;47.696;9.140;2024-01-15T00:33:41;10.03;;;7.87;;
60847;SDS011;46681;47.696;9.140;2024-01-15T00:36:07;9.73;;;8.13;;
60847;SDS011;46681;47.696;9.140;2024-01-15T00:38:34;12.13;;;7.90;;
60847;SDS011;46681;47.696;9.140;2024-01-15T00:41:00;7.60;;;6.77;;
60847;SDS011;46681;47.696;9.140;2024-01-15T00:43:25;8.20;;;6.80;;
60847;SDS011;46681;47.696;9.140;2024-01-15T00:45:51;8.67;;;7.20;;
60847;SDS011;46681;47.696;9.140;2024-01-15T00:48:16;9.07;;;6.93;;
60847;SDS011;46681;47.696;9.140;2024-01-15T00:50:43;7.50;;;6.67;;
60847;SDS011;46681;47.696;9.140;2024-01-15T00:53:08;10.17;;;6.93;;
60847;SDS011;46681;47.696;9.140;2024-01-15T00:55:34;6.83;;;6.00;;
60847;SDS011;46681;47.696;9.140;2024-01-15T00:58:00;7.80;;;6.70;;
60847;SDS011;46681;47.696;9.140;2024-01-15T01:00:25;8.33;;;7.00;;
60847;SDS011;46681;47.696;9.140;2024-01-15T01:02:51;6.53;;;5.73;;
60847;SDS011;46681;47.696;9.140;2024-01-15T01:05:16;6.93;;;6.20;;
60847;SDS011;46681;47.696;9.140;2024-01-15T01:07:42;6.87;;;5.43;;
60847;SDS011;46681;47.696;9.140;2024-01-15T01:10:08;6.17;;;5.43;;
60847;SDS011;46681;47.696;9.140;2024-01-15T01:12:34;6.13;;;5.50;;
60847;SDS011;46681;47.696;9.140;2024-01-15T01:14:59;6.53;;;5.83;;
60847;SDS011;46681;47.696;9.140;2024-01-15T01:17:28;6.00;;;5.40;;
60847;SDS011;46681;47.696;9.140;2024-01-15T01:19:53;5.87;;;4.90;;
60847;SDS011;46681;47.696;9.140;2024-01-15T01:22:20;7.73;;;5.57;;
60847;SDS011;46681;47.696;9.140;2024-01-15T01:24:45;7.10;;;5.60;;
60847;SDS011;46681;47.696;9.140;2024-01-15T01:27:11;5.63;;;5.10;;
60847;SDS011;46681;47.696;9.140;2024-01-15T01:29:36;6.37;;;5.67;;
60847;SDS011;46681;47.696;9.140;2024-01-15T01:32:04;5.50;;;5.00;;
60847;SDS011;46681;47.696;9.140;2024-01-15T01:34:30;5.93;;;5.33;;
60847;SDS011;46681;47.696;9.140;2024-01-15T01:36:59;5.93;;;5.33;;
60847;SDS011;46681;47.696;9.140;2024-01-15T01:39:24;6.50;;;5.00;;
60847;SDS011;46681;47.696;9.140;2024-01-15T01:41:50;5.50;;;5.00;;
60847;SDS011;46681;47.696;9.140;2024-01-15T01:44:15;4.70;;;4.20;;
60847;SDS011;46681;47.696;9.140;2024-01-15T01:46:44;5.30;;;4.60;;
60847;SDS011;46681;47.696;9.140;2024-01-15T01:49:10;4.93;;;4.53;;
60847;SDS011;46681;47.696;9.140;2024-01-15T01:51:35;5.17;;;4.67;;
60847;SDS011;46681;47.696;9.140;2024-01-15T01:54:02;4.53;;;4.03;;
60847;SDS011;46681;47.696;9.140;2024-01-15T01:56:29;4.50;;;4.10;;
60847;SDS011;46681;47.696;9.140;2024-01-15T01:58:58;4.67;;;4.10;;
60847;SDS011;46681;47.696;9.140;2024-01-15T02:01:23;4.97;;;4.47;;
60847;SDS011;46681;47.696;9.140;2024-01-15T02:03:49;4.40;;;4.00;;
60847;SDS011;46681;47.696;9.140;2024-01-15T02:06:14;4.67;;;4.23;;
60847;SDS011;46681;47.696;9.140;2024-01-15T02:08:40;5.03;;;4.53;;
60847;SDS011;46681;47.696;9.140;2024-01-15T02:11:08;4.60;;;4.17;;
60847;SDS011;46681;47.696;9.140;2024-01-15T02:13:34;4.40;;;4.00;;
60847;SDS011;46681;47.696;9.140;2024-01-15T02:15:59;4.67;;;4.27;;
60847;SDS011;46681;47.696;9.140;2024-01-15T02:18:25;4.20;;;3.73;;
60847;SDS011;46681;47.696;9.140;2024-01-15T02:20:50;5.27;;;3.93;;
60847;SDS011;46681;47.696;9.140;2024-01-15T02:23:16;4.10;;;3.70;;
60847;SDS011;46681;47.696;9.140;2024-01-15T02:25:42;4.47;;;3.73;;
60847;SDS011;46681;47.696;9.140;2024-01-15T02:28:13;3.97;;;3.67;;
60847;SDS011;46681;47.696;9.140;2024-01-15T02:30:42;4.00;;;3.60;;
60847;SDS011;46681;47.696;9.140;2024-01-15T02:33:09;4.33;;;3.93;;
60847;SDS011;46681;47.696;9.140;2024-01-15T02:35:35;4.47;;;4.07;;
60847;SDS011;46681;47.696;9.140;2024-01-15T02:38:01;4.33;;;3.93;;
60847;SDS011;46681;47.696;9.140;2024-01-15T02:40:31;4.00;;;3.60;;
60847;SDS011;46681;47.696;9.140;2024-01-15T02:42:57;3.73;;;3.43;;
60847;SDS011;46681;47.696;9.140;2024-01-15T02:45:23;3.97;;;3.63;;
60847;SDS011;46681;47.696;9.140;2024-01-15T02:47:50;3.70;;;3.40;;
60847;SDS011;46681;47.696;9.140;2024-01-15T02:50:15;4.50;;;4.10;;
60847;SDS011;46681;47.696;9.140;2024-01-15T02:52:41;3.97;;;3.57;;
60847;SDS011;46681;47.696;9.140;2024-01-15T02:55:07;4.17;;;3.77;;
60847;SDS011;46681;47.696;9.140;2024-01-15T02:57:33;3.97;;;3.60;;
60847;SDS011;46681;47.696;9.140;2024-01-15T03:00:02;4.80;;;3.97;;
60847;SDS011;46681;47.696;9.140;2024-01-15T03:02:31;4.33;;;3.93;;
60847;SDS011;46681;47.696;9.140;2024-01-15T03:05:00;4.00;;;3.60;;
60847;SDS011;46681;47.696;9.140;2024-01-15T06:25:50;7.30;;;5.20;;
60847;SDS011;46681;47.696;9.140;2024-01-15T14:06:10;4.63;;;3.53;;
60847;SDS011;46681;47.696;9.140;2024-01-15T14:08:38;3.33;;;3.03;;
60847;SDS011;46681;47.696;9.140;2024-01-15T14:11:07;3.30;;;3.00;;
60847;SDS011;46681;47.696;9.140;2024-01-15T14:13:38;3.40;;;2.97;;
60847;SDS011;46681;47.696;9.140;2024-01-15T14:16:04;3.97;;;3.23;;
60847;SDS011;46681;47.696;9.140;2024-01-15T14:18:38;3.90;;;3.13;;
60847;SDS011;46681;47.696;9.140;2024-01-15T14:21:06;3.50;;;3.20;;
60847;SDS011;46681;47.696;9.140;2024-01-15T14:23:35;4.20;;;3.40;;
60847;SDS011;46681;47.696;9.140;2024-01-15T14:26:01;3.87;;;3.27;;
60847;SDS011;46681;47.696;9.140;2024-01-15T14:28:31;3.20;;;2.90;;
60847;SDS011;46681;47.696;9.140;2024-01-15T14:31:05;3.87;;;3.23;;
60847;SDS011;46681;47.696;9.140;2024-01-15T14:33:31;4.03;;;3.57;;
60847;SDS011;46681;47.696;9.140;2024-01-15T14:36:01;4.03;;;3.37;;
60847;SDS011;46681;47.696;9.140;2024-01-15T14:38:33;4.70;;;3.70;;
60847;SDS011;46681;47.696;9.140;2024-01-15T14:41:02;4.10;;;3.70;;
60847;SDS011;46681;47.696;9.140;2024-01-15T14:43:35;5.47;;;3.63;;
60847;SDS011;46681;47.696;9.140;2024-01-15T14:46:22;4.43;;;4.03;;
60847;SDS011;46681;47.696;9.140;2024-01-15T14:48:57;6.77;;;4.10;;
60847;SDS011;46681;47.696;9.140;2024-01-15T14:51:31;5.60;;;4.40;;
60847;SDS011;46681;47.696;9.140;2024-01-15T14:54:12;5.53;;;4.93;;
60847;SDS011;46681;47.696;9.140;2024-01-15T14:56:47;5.63;;;5.10;;
60847;SDS011;46681;47.696;9.140;2024-01-15T14:59:22;6.20;;;5.10;;
60847;SDS011;46681;47.696;9.140;2024-01-15T15:01:51;6.27;;;5.17;;
60847;SDS011;46681;47.696;9.140;2024-01-15T15:04:17;6.40;;;5.80;;
60847;SDS011;46681;47.696;9.140;2024-01-15T15:06:49;6.57;;;5.23;;
60847;SDS011;46681;47.696;9.140;2024-01-15T15:09:14;6.67;;;5.93;;
60847;SDS011;46681;47.696;9.140;2024-01-15T15:11:53;6.77;;;5.70;;
60847;SDS011;46681;47.696;9.140;2024-01-15T15:14:28;7.53;;;5.63;;
60847;SDS011;46681;47.696;9.140;2024-01-15T15:16:54;5.83;;;5.17;;
60847;SDS011;46681;47.696;9.140;2024-01-15T15:19:23;7.77;;;6.60;;
60847;SDS011;46681;47.696;9.140;2024-01-15T15:21:54;6.60;;;5.90;;
60847;SDS011;46681;47.696;9.140;2024-01-15T15:24:22;8.30;;;5.70;;
60847;SDS011;46681;47.696;9.140;2024-01-15T15:26:53;6.87;;;5.63;;
60847;SDS011;46681;47.696;9.140;2024-01-15T15:29:23;7.80;;;6.17;;
60847;SDS011;46681;47.696;9.140;2024-01-15T15:31:52;7.73;;;5.83;;
60847;SDS011;46681;47.696;9.140;2024-01-15T15:34:19;8.37;;;6.13;;
60847;SDS011;46681;47.696;9.140;2024-01-15T15:36:48;7.87;;;5.67;;
60847;SDS011;46681;47.696;9.140;2024-01-15T15:39:15;7.83;;;6.33;;
60847;SDS011;46681;47.696;9.140;2024-01-15T15:41:41;7.67;;;6.23;;
60847;SDS011;46681;47.696;9.140;2024-01-15T15:44:08;7.43;;;6.30;;
60847;SDS011;46681;47.696;9.140;2024-01-15T15:46:37;6.63;;;5.90;;
60847;SDS011;46681;47.696;9.140;2024-01-15T15:49:04;6.17;;;5.57;;
60847;SDS011;46681;47.696;9.140;2024-01-15T15:51:30;11.10;;;5.83;;
60847;SDS011;46681;47.696;9.140;2024-01-15T15:54:00;5.60;;;5.00;;
60847;SDS011;46681;47.696;9.140;2024-01-15T15:56:29;7.00;;;5.03;;
60847;SDS011;46681;47.696;9.140;2024-01-15T15:59:00;6.27;;;5.63;;
60847;SDS011;46681;47.696;9.140;2024-01-15T16:01:37;6.40;;;5.57;;
60847;SDS011;46681;47.696;9.140;2024-01-15T16:04:07;6.20;;;5.57;;
60847;SDS011;46681;47.696;9.140;2024-01-15T16:06:37;4.83;;;4.33;;
60847;SDS011;46681;47.696;9.140;2024-01-15T16:09:04;5.33;;;4.50;;
60847;SDS011;46681;47.696;9.140;2024-01-15T16:11:30;4.90;;;4.00;;
60847;SDS011;46681;47.696;9.140;2024-01-15T16:13:56;6.53;;;4.80;;
60847;SDS011;46681;47.696;9.140;2024-01-15T16:16:21;4.80;;;4.30;;
60847;SDS011;46681;47.696;9.140;2024-01-15T16:18:48;5.80;;;4.60;;
60847;SDS011;46681;47.696;9.140;2024-01-15T16:21:14;4.73;;;4.23;;
60847;SDS011;46681;47.696;9.140;2024-01-15T16:23:40;4.50;;;4.07;;
60847;SDS011;46681;47.696;9.140;2024-01-15T16:26:07;4.17;;;3.80;;
60847;SDS011;46681;47.696;9.140;2024-01-15T16:28:32;4.50;;;4.10;;
60847;SDS011;46681;47.696;9.140;2024-01-15T16:30:58;4.60;;;3.77;;
60847;SDS011;46681;47.696;9.140;2024-01-15T16:33:23;6.57;;;4.23;;
60847;SDS011;46681;47.696;9.140;2024-01-15T16:35:51;4.07;;;3.67;;
60847;SDS011;46681;47.696;9.140;2024-01-15T16:38:20;4.30;;;3.90;;
60847;SDS011;46681;47.696;9.140;2024-01-15T16:40:46;4.33;;;3.40;;
60847;SDS011;46681;47.696;9.140;2024-01-15T16:43:11;4.03;;;3.30;;
60847;SDS011;46681;47.696;9.140;2024-01-15T16:45:40;3.43;;;3.13;;
60847;SDS011;46681;47.696;9.140;2024-01-15T16:48:07;3.73;;;3.40;;
60847;SDS011;46681;47.696;9.140;2024-01-15T16:50:34;4.17;;;3.77;;
60847;SDS011;46681;47.696;9.140;2024-01-15T16:53:16;4.07;;;3.33;;
60847;SDS011;46681;47.696;9.140;2024-01-15T16:55:42;4.53;;;3.20;;
60847;SDS011;46681;47.696;9.140;2024-01-15T16:58:10;4.60;;;3.80;;
60847;SDS011;46681;47.696;9.140;2024-01-15T17:00:39;3.70;;;3.37;;
60847;SDS011;46681;47.696;9.140;2024-01-15T17:03:14;3.90;;;3.60;;
60847;SDS011;46681;47.696;9.140;2024-01-15T17:05:45;3.60;;;3.30;;
60847;SDS011;46681;47.696;9.140;2024-01-15T17:08:11;4.03;;;3.57;;
60847;SDS011;46681;47.696;9.140;2024-01-15T17:10:37;3.60;;;3.30;;
60847;SDS011;46681;47.696;9.140;2024-01-15T17:13:07;5.03;;;3.63;;
60847;SDS011;46681;47.696;9.140;2024-01-15T17:15:39;3.90;;;3.50;;
60847;SDS011;46681;47.696;9.140;2024-01-15T17:18:05;3.57;;;3.27;;
60847;SDS011;46681;47.696;9.140;2024-01-15T17:20:36;4.67;;;3.70;;
60847;SDS011;46681;47.696;9.140;2024-01-15T17:23:04;3.43;;;3.13;;
60847;SDS011;46681;47.696;9.140;2024-01-15T17:25:32;4.90;;;3.87;;
60847;SDS011;46681;47.696;9.140;2024-01-15T17:28:01;3.50;;;3.20;;
60847;SDS011;46681;47.696;9.140;2024-01-15T17:30:26;3.50;;;3.03;;
60847;SDS011;46681;47.696;9.140;2024-01-15T17:32:52;4.30;;;3.67;;
60847;SDS011;46681;47.696;9.140;2024-01-15T17:35:18;4.70;;;3.63;;
60847;SDS011;46681;47.696;9.140;2024-01-15T17:37:44;3.93;;;3.23;;
60847;SDS011;46681;47.696;9.140;2024-01-15T17:40:11;4.77;;;3.33;;
60847;SDS011;46681;47.696;9.140;2024-01-15T17:42:42;3.50;;;3.20;;
60847;SDS011;46681;47.696;9.140;2024-01-15T17:45:19;3.70;;;3.40;;
60847;SDS011;46681;47.696;9.140;2024-01-15T17:47:45;3.50;;;3.20;;
60847;SDS011;46681;47.696;9.140;2024-01-15T17:50:14;3.80;;;3.50;;
60847;SDS011;46681;47.696;9.140;2024-01-15T17:52:44;3.20;;;2.90;;
60847;SDS011;46681;47.696;9.140;2024-01-15T17:55:11;3.20;;;2.90;;
60847;SDS011;46681;47.696;9.140;2024-01-15T17:57:38;3.67;;;3.37;;
60847;SDS011;46681;47.696;9.140;2024-01-15T18:00:04;3.20;;;2.90;;
60847;SDS011;46681;47.696;9.140;2024-01-15T18:02:32;3.57;;;3.00;;
60847;SDS011;46681;47.696;9.140;2024-01-15T18:04:58;2.90;;;2.60;;
60847;SDS011;46681;47.696;9.140;2024-01-15T18:07:24;3.50;;;3.20;;
60847;SDS011;46681;47.696;9.140;2024-01-15T18:09:49;4.60;;;3.37;;
60847;SDS011;46681;47.696;9.140;2024-01-15T18:12:15;3.20;;;3.00;;
60847;SDS011;46681;47.696;9.140;2024-01-15T18:14:41;3.50;;;3.20;;
60847;SDS011;46681;47.696;9.140;2024-01-15T18:17:08;3.70;;;3.30;;
60847;SDS011;46681;47.696;9.140;2024-01-15T18:19:36;3.73;;;3.43;;
60847;SDS011;46681;47.696;9.140;2024-01-15T18:22:02;3.80;;;3.50;;
60847;SDS011;46681;47.696;9.140;2024-01-15T18:24:30;4.50;;;3.97;;
60847;SDS011;46681;47.696;9.140;2024-01-15T18:26:56;4.57;;;3.17;;
60847;SDS011;46681;47.696;9.140;2024-01-15T18:29:22;4.63;;;3.73;;
60847;SDS011;46681;47.696;9.140;2024-01-15T18:31:48;3.77;;;3.47;;
60847;SDS011;46681;47.696;9.140;2024-01-15T18:34:13;4.93;;;4.27;;
60847;SDS011;46681;47.696;9.140;2024-01-15T18:36:39;4.63;;;3.60;;
60847;SDS011;46681;47.696;9.140;2024-01-15T18:39:04;4.73;;;4.07;;
60847;SDS011;46681;47.696;9.140;2024-01-15T18:41:30;4.77;;;4.03;;
60847;SDS011;46681;47.696;9.140;2024-01-15T18:43:56;3.90;;;3.50;;
60847;SDS011;46681;47.696;9.140;2024-01-15T18:46:21;4.20;;;3.80;;
60847;SDS011;46681;47.696;9.140;2024-01-15T18:48:55;4.07;;;3.60;;
60847;SDS011;46681;47.696;9.140;2024-01-15T18:51:23;4.00;;;3.60;;
60847;SDS011;46681;47.696;9.140;2024-01-15T18:53:49;4.83;;;4.33;;
60847;SDS011;46681;47.696;9.140;2024-01-15T18:56:19;5.40;;;4.60;;
60847;SDS011;46681;47.696;9.140;2024-01-15T18:58:45;5.33;;;4.30;;
60847;SDS011;46681;47.696;9.140;2024-01-15T19:01:10;4.70;;;4.30;;
60847;SDS011;46681;47.696;9.140;2024-01-15T19:03:51;5.00;;;4.40;;
60847;SDS011;46681;47.696;9.140;2024-01-15T19:06:19;5.50;;;4.90;;
60847;SDS011;46681;47.696;9.140;2024-01-15T19:08:45;4.53;;;3.80;;
60847;SDS011;46681;47.696;9.140;2024-01-15T19:11:11;5.87;;;5.07;;
60847;SDS011;46681;47.696;9.140;2024-01-15T19:13:37;4.93;;;4.43;;
60847;SDS011;46681;47.696;9.140;2024-01-15T19:16:08;4.23;;;3.80;;
60847;SDS011;46681;47.696;9.140;2024-01-15T19:18:35;3.87;;;3.57;;
60847;SDS011;46681;47.696;9.140;2024-01-15T19:21:01;4.63;;;4.23;;
60847;SDS011;46681;47.696;9.140;2024-01-15T19:23:29;4.90;;;4.10;;
60847;SDS011;46681;47.696;9.140;2024-01-15T19:25:55;4.53;;;3.80;;
60847;SDS011;46681;47.696;9.140;2024-01-15T19:28:21;4.53;;;4.13;;
60847;SDS011;46681;47.696;9.140;2024-01-15T19:30:49;4.50;;;4.10;;
60847;SDS011;46681;47.696;9.140;2024-01-15T19:33:15;4.77;;;4.30;;
60847;SDS011;46681;47.696;9.140;2024-01-15T19:35:44;4.80;;;4.27;;
60847;SDS011;46681;47.696;9.140;2024-01-15T19:38:09;5.13;;;4.63;;
60847;SDS011;46681;47.696;9.140;2024-01-15T19:40:35;5.80;;;4.97;;
60847;SDS011;46681;47.696;9.140;2024-01-15T19:43:01;4.63;;;4.07;;
60847;SDS011;46681;47.696;9.140;2024-01-15T19:45:27;5.27;;;4.60;;
60847;SDS011;46681;47.696;9.140;2024-01-15T19:48:00;5.67;;;4.63;;
60847;SDS011;46681;47.696;9.140;2024-01-15T19:50:28;5.20;;;4.47;;
60847;SDS011;46681;47.696;9.140;2024-01-15T19:52:54;6.03;;;4.97;;
60847;SDS011;46681;47.696;9.140;2024-01-15T19:55:19;5.00;;;4.50;;
60847;SDS011;46681;47.696;9.140;2024-01-15T19:57:46;6.07;;;4.93;;
60847;SDS011;46681;47.696;9.140;2024-01-15T20:00:12;5.43;;;4.83;;
60847;SDS011;46681;47.696;9.140;2024-01-15T20:02:41;5.83;;;4.80;;
60847;SDS011;46681;47.696;9.140;2024-01-15T20:05:06;5.70;;;4.70;;
60847;SDS011;46681;47.696;9.140;2024-01-15T20:07:36;6.63;;;5.43;;
60847;SDS011;46681;47.696;9.140;2024-01-15T20:10:02;10.43;;;5.50;;
60847;SDS011;46681;47.696;9.140;2024-01-15T20:12:33;8.67;;;5.60;;
60847;SDS011;46681;47.696;9.140;2024-01-15T20:14:59;9.00;;;5.53;;
60847;SDS011;46681;47.696;9.140;2024-01-15T20:17:27;9.27;;;4.63;;
60847;SDS011;46681;47.696;9.140;2024-01-15T20:19:54;5.87;;;4.73;;
60847;SDS011;46681;47.696;9.140;2024-01-15T20:22:32;8.03;;;5.27;;
60847;SDS011;46681;47.696;9.140;2024-01-15T20:24:59;6.63;;;5.60;;
60847;SDS011;46681;47.696;9.140;2024-01-15T20:27:24;9.97;;;5.40;;
60847;SDS011;46681;47.696;9.140;2024-01-15T20:29:51;9.83;;;4.90;;
60847;SDS011;46681;47.696;9.140;2024-01-15T20:32:24;6.77;;;5.13;;
60847;SDS011;46681;47.696;9.140;2024-01-15T20:34:54;6.77;;;5.33;;
60847;SDS011;46681;47.696;9.140;2024-01-15T20:37:20;6.07;;;5.27;;
60847;SDS011;46681;47.696;9.140;2024-01-15T20:39:46;7.07;;;5.77;;
60847;SDS011;46681;47.696;9.140;2024-01-15T20:42:12;7.27;;;5.93;;
60847;SDS011;46681;47.696;9.140;2024-01-15T20:44:38;6.53;;;5.73;;
60847;SDS011;46681;47.696;9.140;2024-01-15T20:47:04;7.57;;;5.30;;
60847;SDS011;46681;47.696;9.140;2024-01-15T20:49:30;7.67;;;5.60;;
60847;SDS011;46681;47.696;9.140;2024-01-15T20:51:58;5.63;;;5.13;;
60847;SDS011;46681;47.696;9.140;2024-01-15T20:54:23;6.57;;;5.57;;
60847;SDS011;46681;47.696;9.140;2024-01-15T20:56:49;6.27;;;5.40;;
60847;SDS011;46681;47.696;9.140;2024-01-15T20:59:16;6.47;;;5.30;;
60847;SDS011;46681;47.696;9.140;2024-01-15T21:01:41;7.20;;;5.40;;
60847;SDS011;46681;47.696;9.140;2024-01-15T21:04:07;5.63;;;4.93;;
60847;SDS011;46681;47.696;9.140;2024-01-15T21:06:33;5.33;;;4.80;;
60847;SDS011;46681;47.696;9.140;2024-01-15T21:08:58;5.57;;;4.93;;
60847;SDS011;46681;47.696;9.140;2024-01-15T21:11:26;4.87;;;4.23;;
60847;SDS011;46681;47.696;9.140;2024-01-15T21:13:52;4.90;;;4.50;;
60847;SDS011;46681;47.696;9.140;2024-01-15T21:16:17;6.17;;;4.83;;
60847;SDS011;46681;47.696;9.140;2024-01-15T21:18:43;6.13;;;5.30;;
60847;SDS011;46681;47.696;9.140;2024-01-15T21:21:08;6.03;;;5.20;;
60847;SDS011;46681;47.696;9.140;2024-01-15T21:23:34;6.13;;;5.13;;
60847;SDS011;46681;47.696;9.140;2024-01-15T21:25:59;5.00;;;4.50;;
60847;SDS011;46681;47.696;9.140;2024-01-15T21:28:25;4.77;;;4.27;;
60847;SDS011;46681;47.696;9.140;2024-01-15T21:30:52;5.93;;;4.53;;
60847;SDS011;46681;47.696;9.140;2024-01-15T21:33:17;5.20;;;4.70;;
60847;SDS011;46681;47.696;9.140;2024-01-15T21:35:43;4.73;;;4.23;;
60847;SDS011;46681;47.696;9.140;2024-01-15T21:38:08;5.37;;;4.47;;
60847;SDS011;46681;47.696;9.140;2024-01-15T21:40:34;5.80;;;4.63;;
60847;SDS011;46681;47.696;9.140;2024-01-15T21:42:59;5.30;;;4.67;;
60847;SDS011;46681;47.696;9.140;2024-01-15T21:45:31;4.53;;;4.13;;
60847;SDS011;46681;47.696;9.140;2024-01-15T21:47:57;5.50;;;4.17;;
60847;SDS011;46681;47.696;9.140;2024-01-15T21:50:22;4.60;;;4.13;;
60847;SDS011;46681;47.696;9.140;2024-01-15T21:52:48;5.07;;;4.27;;
60847;SDS011;46681;47.696;9.140;2024-01-15T21:55:16;5.23;;;3.73;;
60847;SDS011;46681;47.696;9.140;2024-01-15T21:57:42;3.97;;;3.67;;
60847;SDS011;46681;47.696;9.140;2024-01-15T22:00:08;3.80;;;3.50;;
60847;SDS011;46681;47.696;9.140;2024-01-15T22:02:38;3.90;;;3.60;;
60847;SDS011;46681;47.696;9.140;2024-01-15T22:05:06;4.30;;;3.90;;
60847;SDS011;46681;47.696;9.140;2024-01-15T22:07:32;5.10;;;3.97;;
60847;SDS011;46681;47.696;9.140;2024-01-15T22:09:58;3.70;;;3.40;;
60847;SDS011;46681;47.696;9.140;2024-01-15T22:12:24;3.57;;;3.27;;
60847;SDS011;46681;47.696;9.140;2024-01-15T22:14:49;3.63;;;3.30;;
60847;SDS011;46681;47.696;9.140;2024-01-15T22:17:15;3.63;;;3.33;;
60847;SDS011;46681;47.696;9.140;2024-01-15T22:19:40;3.77;;;3.47;;
60847;SDS011;46681;47.696;9.140;2024-01-15T22:22:06;4.27;;;3.50;;
60847;SDS011;46681;47.696;9.140;2024-01-15T22:24:31;4.00;;;3.63;;
60847;SDS011;46681;47.696;9.140;2024-01-15T22:26:57;3.50;;;3.20;;
60847;SDS011;46681;47.696;9.140;2024-01-15T22:29:23;3.40;;;3.10;;
60847;SDS011;46681;47.696;9.140;2024-01-15T22:31:48;3.80;;;2.63;;
60847;SDS011;46681;47.696;9.140;2024-01-15T22:34:14;4.37;;;3.43;;
60847;SDS011;46681;47.696;9.140;2024-01-15T22:36:39;3.17;;;2.87;;
60847;SDS011;46681;47.696;9.140;2024-01-15T22:39:05;4.03;;;2.93;;
60847;SDS011;46681;47.696;9.140;2024-01-15T22:41:30;3.57;;;3.27;;
60847;SDS011;46681;47.696;9.140;2024-01-15T22:43:55;3.37;;;3.07;;
60847;SDS011;46681;47.696;9.140;2024-01-15T22:46:21;3.30;;;3.00;;
60847;SDS011;46681;47.696;9.140;2024-01-15T22:48:50;2.67;;;2.47;;
60847;SDS011;46681;47.696;9.140;2024-01-15T22:51:16;2.93;;;2.73;;
60847;SDS011;46681;47.696;9.140;2024-01-15T22:53:41;3.23;;;2.90;;
60847;SDS011;46681;47.696;9.140;2024-01-15T22:56:06;3.00;;;2.70;;
60847;SDS011;46681;47.696;9.140;2024-01-15T22:58:32;2.50;;;2.40;;
60847;SDS011;46681;47.696;9.140;2024-01-15T23:01:01;3.07;;;2.77;;
60847;SDS011;46681;47.696;9.140;2024-01-15T23:03:30;3.17;;;2.97;;
60847;SDS011;46681;47.696;9.140;2024-01-15T23:05:55;3.10;;;2.80;;
60847;SDS011;46681;47.696;9.140;2024-01-15T23:08:21;5.47;;;2.97;;
60847;SDS011;46681;47.696;9.140;2024-01-15T23:10:46;2.90;;;2.70;;
60847;SDS011;46681;47.696;9.140;2024-01-15T23:13:15;2.87;;;2.67;;
60847;SDS011;46681;47.696;9.140;2024-01-15T23:15:41;2.87;;;2.63;;
60847;SDS011;46681;47.696;9.140;2024-01-15T23:18:06;2.70;;;2.50;;
60847;SDS011;46681;47.696;9.140;2024-01-15T23:20:32;2.80;;;2.60;;
60847;SDS011;46681;47.696;9.140;2024-01-15T23:22:57;3.20;;;2.90;;
60847;SDS011;46681;47.696;9.140;2024-01-15T23:25:23;2.80;;;2.60;;
60847;SDS011;46681;47.696;9.140;2024-01-15T23:27:49;3.10;;;2.90;;
60847;SDS011;46681;47.696;9.140;2024-01-15T23:30:14;3.37;;;2.80;;
60847;SDS011;46681;47.696;9.140;2024-01-15T23:32:45;3.43;;;3.10;;
60847;SDS011;46681;47.696;9.140;2024-01-15T23:35:12;2.93;;;2.70;;
60847;SDS011;46681;47.696;9.140;2024-01-15T23:37:43;2.70;;;2.40;;
60847;SDS011;46681;47.696;9.140;2024-01-15T23:40:08;2.90;;;2.70;;
60847;SDS011;46681;47.696;9.140;2024-01-15T23:42:34;2.67;;;2.47;;
60847;SDS011;46681;47.696;9.140;2024-01-15T23:45:00;3.00;;;2.70;;
60847;SDS011;46681;47.696;9.140;2024-01-15T23:47:25;3.10;;;2.90;;
60847;SDS011;46681;47.696;9.140;2024-01-15T23:49:51;3.17;;;2.97;;
60847;SDS011;46681;47.696;9.140;2024-01-15T23:52:19;2.90;;;2.70;;
60847;SDS011;46681;47.696;9.140;2024-01-15T23:54:44;2.80;;;2.70;;
60847;SDS011;46681;47.696;9.140;2024-01-15T23:57:10;3.03;;;2.73;;
60847;SDS011;46681;47.696;9.140;2024-01-15T23:59:38;3.03;;;2.73;;
